createdAt,value
2022-12-01T00:01:18.096Z,24.08
2022-12-01T00:04:03.579Z,24.70
2022-12-01T00:06:48.964Z,26.30
2022-12-01T00:09:52.922Z,26.15
2022-12-01T00:12:43.466Z,24.98
2022-12-01T00:15:37.149Z,25.60
2022-12-01T00:18:22.209Z,24.10
2022-12-01T00:21:14.043Z,25.42
2022-12-01T00:23:59.379Z,25.08
2022-12-01T00:26:44.533Z,24.83
2022-12-01T00:29:29.760Z,25.70
2022-12-01T00:32:15.210Z,24.23
2022-12-01T00:35:00.584Z,24.08
2022-12-01T00:37:45.948Z,23.90
2022-12-01T00:40:31.054Z,24.05
2022-12-01T00:43:16.346Z,24.33
2022-12-01T00:46:01.820Z,25.05
2022-12-01T00:48:47.185Z,25.27
2022-12-01T00:51:32.262Z,25.38
2022-12-01T00:54:17.383Z,24.55
2022-12-01T00:57:03.036Z,25.65
2022-12-01T00:59:48.308Z,24.83
2022-12-01T01:02:34.085Z,23.92
2022-12-01T01:05:19.242Z,23.95
2022-12-01T01:08:12.888Z,24.60
2022-12-01T01:10:59.671Z,23.10
2022-12-01T01:13:45.038Z,24.73
2022-12-01T01:16:30.387Z,22.70
2022-12-01T01:19:16.713Z,25.35
2022-12-01T01:22:02.052Z,23.40
2022-12-01T01:24:47.332Z,23.35
2022-12-01T01:27:34.552Z,24.48
2022-12-01T01:30:20.062Z,23.65
2022-12-01T01:33:05.070Z,22.55
2022-12-01T01:35:50.550Z,22.70
2022-12-01T01:38:36.232Z,21.55
2022-12-01T01:41:22.589Z,23.58
2022-12-01T01:44:45.164Z,22.73
2022-12-01T01:47:34.766Z,22.52
2022-12-01T01:50:23.000Z,21.05
2022-12-01T01:53:12.420Z,19.77
2022-12-01T01:55:58.877Z,18.63
2022-12-01T01:58:44.840Z,21.83
2022-12-01T02:01:31.378Z,19.92
2022-12-01T02:04:16.674Z,19.52
2022-12-01T02:07:01.980Z,19.23
2022-12-01T02:09:47.664Z,20.42
2022-12-01T02:12:55.169Z,19.63
2022-12-01T02:16:12.744Z,18.67
2022-12-01T02:19:35.885Z,20.65
2022-12-01T02:22:38.112Z,17.63
2022-12-01T02:26:02.116Z,18.40
2022-12-01T02:29:24.920Z,16.35
2022-12-01T02:32:33.414Z,16.20
2022-12-01T02:35:39.322Z,16.17
2022-12-01T02:38:35.552Z,15.73
2022-12-01T02:41:29.682Z,15.00
2022-12-01T02:44:24.852Z,15.88
2022-12-01T02:47:14.601Z,15.20
2022-12-01T02:50:01.642Z,15.65
2022-12-01T02:52:47.844Z,14.25
2022-12-01T02:55:32.999Z,13.38
2022-12-01T02:58:18.504Z,13.48
2022-12-01T03:01:30.099Z,13.95
2022-12-01T03:04:24.844Z,12.60
2022-12-01T03:07:19.632Z,12.55
2022-12-01T03:10:25.317Z,13.07
2022-12-01T03:13:29.601Z,13.05
2022-12-01T03:16:42.127Z,13.43
2022-12-01T03:19:43.709Z,12.88
2022-12-01T03:22:36.243Z,13.20
2022-12-01T03:25:26.246Z,12.35
2022-12-01T03:28:22.854Z,12.50
2022-12-01T03:31:13.306Z,14.20
2022-12-01T03:34:24.210Z,15.07
2022-12-01T03:37:18.616Z,14.10
2022-12-01T03:40:08.958Z,13.32
2022-12-01T03:43:01.894Z,14.20
2022-12-01T03:45:56.429Z,15.35
2022-12-01T03:48:42.264Z,13.98
2022-12-01T03:52:10.462Z,14.50
2022-12-01T03:55:09.002Z,12.48
2022-12-01T03:58:03.634Z,11.85
2022-12-01T04:00:53.165Z,11.68
2022-12-01T04:03:38.555Z,12.45
2022-12-01T04:06:23.681Z,12.52
2022-12-01T04:09:09.081Z,13.55
2022-12-01T04:12:13.005Z,13.60
2022-12-01T04:15:03.422Z,12.50
2022-12-01T04:17:48.502Z,12.60
2022-12-01T04:20:33.762Z,11.63
2022-12-01T04:23:37.657Z,10.68
2022-12-01T04:26:22.986Z,9.02
2022-12-01T04:29:11.200Z,9.48
2022-12-01T04:31:56.132Z,10.15
2022-12-01T04:34:41.411Z,11.35
2022-12-01T04:37:26.691Z,10.40
2022-12-01T04:40:12.367Z,10.48
2022-12-01T04:42:57.216Z,10.45
2022-12-01T04:45:42.461Z,10.50
2022-12-01T04:48:27.588Z,10.20
2022-12-01T04:51:12.914Z,10.52
2022-12-01T04:53:58.632Z,10.93
2022-12-01T04:56:43.817Z,10.32
2022-12-01T04:59:29.018Z,9.13
2022-12-01T05:02:15.151Z,10.40
2022-12-01T05:05:00.632Z,9.75
2022-12-01T05:07:45.872Z,9.55
2022-12-01T05:10:30.863Z,9.73
2022-12-01T05:13:16.173Z,10.43
2022-12-01T05:16:09.330Z,11.40
2022-12-01T05:19:16.054Z,12.25
2022-12-01T05:22:01.021Z,11.98
2022-12-01T05:24:46.298Z,12.30
2022-12-01T05:27:31.226Z,11.95
2022-12-01T05:30:16.829Z,11.23
2022-12-01T05:33:01.746Z,11.32
2022-12-01T05:35:48.900Z,11.82
2022-12-01T05:38:34.035Z,9.20
2022-12-01T05:41:19.257Z,8.75
2022-12-01T05:44:04.642Z,8.65
2022-12-01T05:46:50.004Z,7.93
2022-12-01T05:49:35.315Z,9.15
2022-12-01T05:52:20.624Z,9.38
2022-12-01T05:55:06.763Z,9.43
2022-12-01T05:57:51.891Z,8.88
2022-12-01T06:00:45.017Z,8.13
2022-12-01T06:03:30.650Z,8.55
2022-12-01T06:06:15.721Z,7.75
2022-12-01T06:09:01.115Z,8.82
2022-12-01T06:11:50.021Z,8.10
2022-12-01T06:14:37.620Z,8.75
2022-12-01T06:17:22.633Z,8.50
2022-12-01T06:20:09.560Z,7.00
2022-12-01T06:22:54.924Z,9.30
2022-12-01T06:25:40.256Z,8.15
2022-12-01T06:28:25.573Z,8.50
2022-12-01T06:31:10.762Z,8.57
2022-12-01T06:33:55.942Z,7.93
2022-12-01T06:36:41.267Z,8.45
2022-12-01T06:39:26.692Z,8.30
2022-12-01T06:42:12.187Z,7.60
2022-12-01T06:44:57.195Z,8.45
2022-12-01T06:47:42.516Z,8.57
2022-12-01T06:50:27.693Z,8.18
2022-12-01T06:53:12.857Z,9.13
2022-12-01T06:56:05.201Z,8.48
2022-12-01T06:58:50.730Z,8.77
2022-12-01T07:01:36.647Z,7.88
2022-12-01T07:04:21.736Z,8.23
2022-12-01T07:07:07.107Z,8.38
2022-12-01T07:09:52.361Z,7.93
2022-12-01T07:12:38.185Z,7.32
2022-12-01T07:15:24.357Z,7.13
2022-12-01T07:18:09.602Z,7.93
2022-12-01T07:20:59.076Z,8.20
2022-12-01T07:23:44.306Z,7.80
2022-12-01T07:26:29.462Z,7.68
2022-12-01T07:29:14.530Z,7.32
2022-12-01T07:31:59.708Z,6.90
2022-12-01T07:34:45.026Z,8.05
2022-12-01T07:37:30.178Z,7.70
2022-12-01T07:40:15.526Z,7.85
2022-12-01T07:43:00.810Z,7.30
2022-12-01T07:45:46.100Z,7.45
2022-12-01T07:48:31.395Z,6.97
2022-12-01T07:51:17.375Z,8.27
2022-12-01T07:54:05.010Z,7.40
2022-12-01T07:56:50.336Z,7.97
2022-12-01T07:59:35.512Z,8.13
2022-12-01T08:02:20.997Z,6.95
2022-12-01T08:05:07.020Z,7.93
2022-12-01T08:07:53.952Z,8.02
2022-12-01T08:10:39.484Z,9.65
2022-12-01T08:13:24.721Z,8.88
2022-12-01T08:16:13.281Z,10.75
2022-12-01T08:18:58.570Z,15.30
2022-12-01T08:21:44.919Z,9.68
2022-12-01T08:24:30.504Z,9.63
2022-12-01T08:27:15.575Z,8.90
2022-12-01T08:30:00.526Z,9.38
2022-12-01T08:32:45.922Z,12.02
2022-12-01T08:35:31.159Z,13.65
2022-12-01T08:38:16.426Z,13.93
2022-12-01T08:41:08.356Z,14.73
2022-12-01T08:43:58.440Z,11.70
2022-12-01T08:46:44.656Z,8.70
2022-12-01T08:49:30.003Z,8.55
2022-12-01T08:52:15.267Z,11.07
2022-12-01T08:55:01.179Z,8.70
2022-12-01T08:57:46.655Z,7.93
2022-12-01T09:00:31.771Z,9.57
2022-12-01T09:03:17.204Z,11.70
2022-12-01T09:06:08.581Z,4.93
2022-12-01T09:08:53.895Z,8.48
2022-12-01T09:11:39.914Z,8.20
2022-12-01T09:14:25.261Z,8.45
2022-12-01T09:17:10.223Z,7.95
2022-12-01T09:19:55.451Z,8.38
2022-12-01T09:22:40.648Z,8.40
2022-12-01T09:25:25.918Z,8.10
2022-12-01T09:28:11.360Z,7.40
2022-12-01T09:30:56.816Z,6.93
2022-12-01T09:33:41.925Z,7.50
2022-12-01T09:36:28.578Z,8.10
2022-12-01T09:39:19.590Z,7.88
2022-12-01T09:42:16.731Z,7.15
2022-12-01T09:45:04.987Z,8.23
2022-12-01T09:47:50.144Z,7.55
2022-12-01T09:50:36.220Z,7.22
2022-12-01T09:53:25.305Z,7.78
2022-12-01T09:56:42.627Z,7.85
2022-12-01T09:59:40.199Z,7.78
2022-12-01T10:02:31.314Z,8.35
2022-12-01T10:05:22.223Z,8.00
2022-12-01T10:08:15.508Z,7.90
2022-12-01T10:11:24.824Z,9.90
2022-12-01T10:14:20.073Z,7.60
2022-12-01T10:17:11.842Z,8.75
2022-12-01T10:20:10.748Z,8.73
2022-12-01T10:23:33.605Z,9.18
2022-12-01T10:26:31.476Z,8.88
2022-12-01T10:29:36.312Z,8.40
2022-12-01T10:32:36.092Z,9.20
2022-12-01T10:35:25.143Z,8.05
2022-12-01T10:38:24.180Z,8.85
2022-12-01T10:41:14.471Z,9.73
2022-12-01T10:46:52.808Z,8.80
2022-12-01T10:49:40.845Z,8.32
2022-12-01T10:52:34.562Z,8.65
2022-12-01T10:55:22.906Z,8.02
2022-12-01T10:58:15.530Z,7.85
2022-12-01T11:01:06.634Z,8.38
2022-12-01T11:04:08.129Z,7.70
2022-12-01T11:06:53.867Z,8.68
2022-12-01T11:09:39.142Z,8.05
2022-12-01T11:12:25.068Z,9.00
2022-12-01T11:15:20.948Z,8.20
2022-12-01T11:18:31.339Z,8.60
2022-12-01T11:21:28.056Z,9.65
2022-12-01T11:24:27.913Z,8.93
2022-12-01T11:30:27.383Z,8.13
2022-12-01T11:33:14.926Z,8.10
2022-12-01T11:36:00.307Z,7.68
2022-12-01T11:38:45.591Z,8.25
2022-12-01T11:41:40.638Z,8.10
2022-12-01T11:44:50.480Z,8.02
2022-12-01T11:47:32.423Z,8.38
2022-12-01T11:50:27.192Z,7.72
2022-12-01T11:53:42.750Z,8.20
2022-12-01T11:56:30.268Z,8.05
2022-12-01T11:59:17.012Z,8.65
2022-12-01T12:02:30.551Z,7.60
2022-12-01T12:05:21.648Z,7.25
2022-12-01T12:08:21.947Z,7.05
2022-12-01T12:11:20.404Z,7.55
2022-12-01T12:14:39.982Z,7.25
2022-12-01T12:18:05.901Z,7.82
2022-12-01T12:21:20.006Z,7.03
2022-12-01T12:24:31.243Z,6.93
2022-12-01T12:27:32.189Z,6.45
2022-12-01T12:30:29.756Z,6.68
2022-12-01T12:33:28.846Z,6.80
2022-12-01T12:36:29.030Z,6.70
2022-12-01T12:39:59.786Z,6.55
2022-12-01T12:42:44.663Z,8.10
2022-12-01T12:45:57.584Z,7.80
2022-12-01T12:49:11.639Z,7.80
2022-12-01T12:52:08.144Z,7.45
2022-12-01T12:55:12.373Z,7.00
2022-12-01T12:58:06.672Z,7.45
2022-12-01T13:01:09.614Z,8.68
2022-12-01T13:04:07.927Z,8.03
2022-12-01T13:07:01.835Z,7.68
2022-12-01T13:10:00.647Z,7.57
2022-12-01T13:12:56.150Z,8.05
2022-12-01T13:15:42.512Z,6.80
2022-12-01T13:18:37.646Z,6.22
2022-12-01T13:21:24.060Z,6.18
2022-12-01T13:24:21.340Z,5.78
2022-12-01T13:27:14.703Z,5.80
2022-12-01T13:30:00.660Z,5.18
2022-12-01T13:32:47.108Z,5.82
2022-12-01T13:35:37.922Z,5.55
2022-12-01T13:38:26.793Z,5.13
2022-12-01T13:41:17.840Z,4.93
2022-12-01T13:44:07.202Z,4.78
2022-12-01T13:47:04.931Z,4.72
2022-12-01T13:49:52.098Z,4.28
2022-12-01T13:52:49.652Z,4.80
2022-12-01T13:55:34.665Z,4.43
2022-12-01T13:58:29.522Z,4.07
2022-12-01T14:01:21.240Z,3.88
2022-12-01T14:04:15.773Z,4.28
2022-12-01T14:07:27.906Z,4.25
2022-12-01T14:10:22.674Z,4.82
2022-12-01T14:13:19.325Z,5.40
2022-12-01T14:16:05.291Z,5.63
2022-12-01T14:18:58.737Z,5.72
2022-12-01T14:21:49.608Z,5.72
2022-12-01T14:24:37.815Z,5.93
2022-12-01T14:27:41.391Z,5.38
2022-12-01T14:30:42.054Z,5.60
2022-12-01T14:33:39.641Z,5.90
2022-12-01T14:36:24.690Z,6.43
2022-12-01T14:39:17.995Z,6.15
2022-12-01T14:42:11.322Z,5.68
2022-12-01T14:44:57.435Z,4.93
2022-12-01T14:47:49.413Z,5.25
2022-12-01T14:50:45.072Z,4.85
2022-12-01T14:53:34.028Z,5.05
2022-12-01T14:56:21.952Z,4.85
2022-12-01T14:59:22.613Z,4.63
2022-12-01T15:02:12.141Z,5.10
2022-12-01T15:05:18.239Z,5.55
2022-12-01T15:11:27.103Z,5.20
2022-12-01T15:14:56.710Z,5.93
2022-12-01T15:17:41.712Z,6.30
2022-12-01T15:20:41.296Z,5.65
2022-12-01T15:23:29.985Z,5.57
2022-12-01T15:26:19.624Z,6.35
2022-12-01T15:29:28.523Z,8.07
2022-12-01T15:32:17.135Z,5.97
2022-12-01T15:35:04.630Z,6.55
2022-12-01T15:37:51.311Z,6.05
2022-12-01T15:41:06.645Z,6.13
2022-12-01T15:43:41.943Z,6.07
2022-12-01T15:46:34.546Z,6.80
2022-12-01T15:49:27.765Z,7.65
2022-12-01T15:52:12.894Z,6.97
2022-12-01T15:55:02.964Z,6.68
2022-12-01T15:57:48.132Z,8.30
2022-12-01T16:00:33.831Z,7.28
2022-12-01T16:03:19.526Z,7.15
2022-12-01T16:06:04.705Z,7.13
2022-12-01T16:09:27.380Z,7.00
2022-12-01T16:12:12.292Z,6.90
2022-12-01T16:15:19.049Z,7.18
2022-12-01T16:18:26.160Z,7.97
2022-12-01T16:21:11.491Z,6.63
2022-12-01T16:24:05.721Z,7.38
2022-12-01T16:26:55.598Z,6.60
2022-12-01T16:30:06.379Z,8.30
2022-12-01T16:33:00.397Z,6.95
2022-12-01T16:35:46.185Z,8.55
2022-12-01T16:38:31.314Z,8.63
2022-12-01T16:41:25.158Z,9.20
2022-12-01T16:44:32.164Z,10.68
2022-12-01T16:47:19.696Z,12.77
2022-12-01T16:50:05.416Z,11.05
2022-12-01T16:52:50.299Z,11.07
2022-12-01T16:55:46.435Z,11.38
2022-12-01T16:58:31.544Z,13.30
2022-12-01T17:01:17.094Z,13.30
2022-12-01T17:04:07.233Z,12.30
2022-12-01T17:06:53.771Z,13.85
2022-12-01T17:09:38.992Z,13.93
2022-12-01T17:12:26.370Z,14.27
2022-12-01T17:15:11.889Z,13.70
2022-12-01T17:17:57.249Z,12.10
2022-12-01T17:20:42.955Z,12.00
2022-12-01T17:23:28.248Z,10.55
2022-12-01T17:26:16.333Z,9.38
2022-12-01T17:29:02.149Z,9.07
2022-12-01T17:31:47.575Z,9.52
2022-12-01T17:34:32.672Z,8.90
2022-12-01T17:37:21.197Z,7.95
2022-12-01T17:40:10.282Z,6.93
2022-12-01T17:42:55.282Z,6.93
2022-12-01T17:45:42.099Z,7.72
2022-12-01T17:48:28.437Z,7.93
2022-12-01T17:51:14.375Z,10.73
2022-12-01T17:53:59.703Z,11.23
2022-12-01T17:56:45.082Z,11.93
2022-12-01T17:59:30.333Z,12.77
2022-12-01T18:02:15.744Z,13.43
2022-12-01T18:05:00.939Z,11.68
2022-12-01T18:07:46.416Z,12.20
2022-12-01T18:10:31.468Z,12.77
2022-12-01T18:13:16.425Z,13.32
2022-12-01T18:16:09.175Z,12.98
2022-12-01T18:18:56.451Z,12.38
2022-12-01T18:21:42.144Z,12.40
2022-12-01T18:24:27.069Z,16.00
2022-12-01T18:27:12.315Z,14.60
2022-12-01T18:29:57.545Z,14.10
2022-12-01T18:32:42.867Z,14.57
2022-12-01T18:35:31.798Z,17.08
2022-12-01T18:38:17.395Z,16.52
2022-12-01T18:41:03.148Z,24.95
2022-12-01T18:43:48.313Z,34.15
2022-12-01T18:46:33.912Z,18.70
2022-12-01T18:49:19.124Z,16.88
2022-12-01T18:52:04.964Z,17.38
2022-12-01T18:54:50.440Z,17.40
2022-12-01T18:57:35.915Z,18.60
2022-12-01T19:00:21.742Z,19.60
2022-12-01T19:03:06.948Z,20.42
2022-12-01T19:05:52.234Z,24.02
2022-12-01T19:08:37.368Z,24.20
2022-12-01T19:11:22.524Z,28.67
2022-12-01T19:14:11.998Z,29.30
2022-12-01T19:16:57.245Z,44.83
2022-12-01T19:19:42.404Z,48.13
2022-12-01T19:22:27.869Z,45.45
2022-12-01T19:25:13.611Z,44.25
2022-12-01T19:27:59.059Z,40.25
2022-12-01T19:30:48.226Z,35.33
2022-12-01T19:33:33.644Z,40.85
2022-12-01T19:36:22.202Z,37.55
2022-12-01T19:39:07.821Z,42.95
2022-12-01T19:41:53.114Z,39.53
2022-12-01T19:44:38.325Z,39.47
2022-12-01T19:47:23.619Z,32.88
2022-12-01T19:50:09.760Z,36.13
2022-12-01T19:52:55.085Z,39.90
2022-12-01T19:55:40.229Z,30.77
2022-12-01T19:58:25.532Z,28.83
2022-12-01T20:01:13.037Z,29.95
2022-12-01T20:03:58.510Z,30.58
2022-12-01T20:06:44.040Z,30.20
2022-12-01T20:09:28.994Z,29.98
2022-12-01T20:12:14.632Z,30.42
2022-12-01T20:15:00.629Z,29.83
2022-12-01T20:17:45.569Z,36.33
2022-12-01T20:20:30.667Z,75.40
2022-12-01T20:23:15.822Z,87.20
2022-12-01T20:26:04.078Z,72.50
2022-12-01T20:28:52.616Z,70.82
2022-12-01T20:31:37.921Z,48.70
2022-12-01T20:34:26.898Z,38.85
2022-12-01T20:37:12.521Z,48.55
2022-12-01T20:39:57.872Z,38.45
2022-12-01T20:42:43.058Z,37.42
2022-12-01T20:45:28.251Z,37.75
2022-12-01T20:48:14.322Z,33.60
2022-12-01T20:51:00.964Z,39.10
2022-12-01T20:54:05.580Z,31.90
2022-12-01T20:56:51.569Z,32.63
2022-12-01T20:59:36.974Z,38.60
2022-12-01T21:02:22.173Z,34.95
2022-12-01T21:05:07.300Z,29.80
2022-12-01T21:07:52.943Z,32.08
2022-12-01T21:10:44.874Z,35.13
2022-12-01T21:13:42.107Z,32.90
2022-12-01T21:16:34.045Z,28.73
2022-12-01T21:19:51.239Z,30.17
2022-12-01T21:22:36.470Z,30.65
2022-12-01T21:25:24.302Z,31.00
2022-12-01T21:28:24.132Z,31.90
2022-12-01T21:31:14.717Z,30.50
2022-12-01T21:33:59.819Z,30.17
2022-12-01T21:36:47.383Z,30.98
2022-12-01T21:39:34.628Z,31.40
2022-12-01T21:42:22.848Z,31.92
2022-12-01T21:45:22.181Z,31.23
2022-12-01T21:48:16.402Z,42.25
2022-12-01T21:51:04.731Z,45.10
2022-12-01T21:53:52.010Z,33.75
2022-12-01T21:56:37.315Z,35.50
2022-12-01T21:59:23.933Z,35.33
2022-12-01T22:02:36.372Z,39.75
2022-12-01T22:05:28.028Z,38.65
2022-12-01T22:08:32.820Z,41.03
2022-12-01T22:11:27.314Z,42.20
2022-12-01T22:14:36.429Z,46.03
2022-12-01T22:17:22.135Z,40.65
2022-12-01T22:20:22.366Z,41.10
2022-12-01T22:23:12.579Z,37.28
2022-12-01T22:25:58.003Z,40.03
2022-12-01T22:28:43.269Z,38.72
2022-12-01T22:31:29.314Z,39.88
2022-12-01T22:34:16.495Z,38.05
2022-12-01T22:37:01.653Z,38.63
2022-12-01T22:39:48.765Z,37.58
2022-12-01T22:42:35.282Z,38.72
2022-12-01T22:45:24.090Z,34.55
2022-12-01T22:48:27.527Z,36.05
2022-12-01T22:51:22.503Z,37.88
2022-12-01T22:54:10.414Z,37.85
2022-12-01T22:57:15.601Z,39.60
2022-12-01T23:00:13.973Z,37.35
2022-12-01T23:02:59.297Z,37.22
2022-12-01T23:05:45.349Z,37.60
2022-12-01T23:08:30.210Z,37.05
2022-12-01T23:11:15.142Z,36.33
2022-12-01T23:14:00.290Z,34.80
2022-12-01T23:16:45.494Z,35.63
2022-12-01T23:19:32.600Z,37.67
2022-12-01T23:22:17.936Z,36.42
2022-12-01T23:25:13.314Z,34.20
2022-12-01T23:28:02.929Z,35.08
2022-12-01T23:30:52.536Z,34.50
2022-12-01T23:33:37.843Z,33.42
2022-12-01T23:36:26.094Z,32.55
2022-12-01T23:39:13.562Z,31.55
2022-12-01T23:41:59.183Z,31.77
2022-12-01T23:44:45.567Z,31.20
2022-12-01T23:47:30.878Z,34.00
2022-12-01T23:50:22.736Z,32.50
2022-12-01T23:53:23.536Z,31.67
2022-12-01T23:56:14.342Z,31.58
2022-12-01T23:59:01.277Z,32.55
